Time;durP1;ratioP1;P1;durP2;ratioP2;P2;SDS_P1;SDS_P2;PMS_P1;PMS_P2;Temp;Humidity;BMP_temperature;BMP_pressure;BME280_temperature;BME280_humidity;BME280_pressure;Samples;Min_cycle;Max_cycle;Signal;HPM_P1;HPM_P2
2023/12/19 00:00:28;;;;;;;37.93;24.37;;;;;;;4.08;100.00;102429.41;5241946;28;20033;-81
2023/12/19 00:03:00;;;;;;;32.50;24.90;;;;;;;4.04;100.00;102430.06;5242009;28;20538;-80
2023/12/19 00:05:31;;;;;;;32.95;23.77;;;;;;;4.09;100.00;102425.09;5241786;28;20065;-81
2023/12/19 00:08:03;;;;;;;37.77;27.20;;;;;;;4.08;100.00;102441.44;5242262;28;20087;-80
2023/12/19 00:10:34;;;;;;;37.23;24.83;;;;;;;4.11;100.00;102441.56;5241853;28;20414;-80
2023/12/19 00:13:06;;;;;;;32.33;23.40;;;;;;;4.10;100.00;102430.34;5241801;28;20106;-82
2023/12/19 00:15:37;;;;;;;37.47;24.40;;;;;;;4.10;100.00;102416.56;5242161;28;20449;-81
2023/12/19 00:18:09;;;;;;;36.37;23.00;;;;;;;4.12;100.00;102423.56;5260878;28;20045;-80
2023/12/19 00:20:41;;;;;;;38.33;23.77;;;;;;;4.16;100.00;102409.94;5244177;28;20420;-80
2023/12/19 00:23:13;;;;;;;34.13;24.30;;;;;;;4.17;100.00;102405.66;5244130;28;20033;-81
2023/12/19 00:25:44;;;;;;;32.97;25.77;;;;;;;4.15;100.00;102396.97;5243144;28;20468;-79
2023/12/19 00:28:15;;;;;;;33.13;22.93;;;;;;;4.16;100.00;102398.75;5242915;28;20033;-79
2023/12/19 00:30:47;;;;;;;33.30;24.47;;;;;;;4.19;100.00;102402.31;5243301;28;20469;-81
2023/12/19 00:33:18;;;;;;;36.47;25.70;;;;;;;4.17;100.00;102403.06;5241765;28;20230;-80
2023/12/19 00:35:50;;;;;;;36.80;25.60;;;;;;;4.15;100.00;102405.63;5242831;28;20041;-80
2023/12/19 00:38:21;;;;;;;31.77;23.83;;;;;;;4.19;100.00;102380.78;5242661;28;20084;-80
2023/12/19 00:40:52;;;;;;;39.10;25.67;;;;;;;4.19;100.00;102375.63;5241373;28;20110;-79
2023/12/19 00:43:24;;;;;;;34.13;24.77;;;;;;;4.17;100.00;102372.09;5241179;28;20033;-82
2023/12/19 00:45:55;;;;;;;36.10;25.03;;;;;;;4.21;100.00;102376.56;5239847;28;20068;-81
2023/12/19 00:48:26;;;;;;;34.40;25.20;;;;;;;4.20;100.00;102367.94;5241174;28;20084;-81
2023/12/19 00:50:58;;;;;;;41.93;25.67;;;;;;;4.22;100.00;102356.78;5241434;28;20526;-79
2023/12/19 00:53:29;;;;;;;36.90;24.80;;;;;;;4.22;100.00;102360.28;5240928;28;20489;-81
2023/12/19 00:56:01;;;;;;;40.10;24.37;;;;;;;4.26;100.00;102349.22;5241554;28;20034;-82
2023/12/19 00:58:32;;;;;;;39.63;27.43;;;;;;;4.23;100.00;102343.94;5237301;28;20056;-78
2023/12/19 01:01:04;;;;;;;39.63;25.00;;;;;;;4.24;100.00;102348.28;5138517;28;20031;-79
2023/12/19 01:03:36;;;;;;;36.10;25.80;;;;;;;4.25;100.00;102336.25;5139522;29;20051;-80
2023/12/19 01:06:07;;;;;;;41.47;27.47;;;;;;;4.29;100.00;102343.31;5142413;29;20391;-80
2023/12/19 01:08:38;;;;;;;35.93;26.70;;;;;;;4.29;100.00;102336.44;5148220;29;20031;-77
2023/12/19 01:11:10;;;;;;;41.37;27.17;;;;;;;4.33;100.00;102316.78;5151796;29;20062;-80
2023/12/19 01:13:42;;;;;;;39.40;28.83;;;;;;;4.33;100.00;102324.50;5153288;28;20059;-80
2023/12/19 01:16:16;;;;;;;36.40;25.73;;;;;;;4.33;100.00;102315.09;5146984;29;20062;-82
2023/12/19 01:18:47;;;;;;;42.28;24.52;;;;;;;4.36;100.00;102322.06;5220210;28;20363;-80
2023/12/19 01:21:19;;;;;;;38.07;26.07;;;;;;;4.35;100.00;102320.31;5140675;29;20059;-80
2023/12/19 01:23:50;;;;;;;35.20;26.97;;;;;;;4.33;100.00;102315.09;5142413;29;20080;-79
2023/12/19 01:26:21;;;;;;;38.70;26.20;;;;;;;4.38;100.00;102307.53;5143976;29;20156;-79
2023/12/19 01:28:53;;;;;;;40.57;26.47;;;;;;;4.38;100.00;102313.56;5146322;29;20032;-78
2023/12/19 01:31:24;;;;;;;39.43;26.50;;;;;;;4.37;100.00;102322.09;5145459;29;20027;-79
2023/12/19 01:33:57;;;;;;;43.30;28.77;;;;;;;4.42;100.00;102305.94;5137486;29;20382;-81
2023/12/19 01:36:28;;;;;;;42.72;27.63;;;;;;;4.43;100.00;102310.25;5136169;29;20127;-79
2023/12/19 01:38:59;;;;;;;41.23;26.83;;;;;;;4.42;100.00;102308.50;5136552;29;20114;-79
2023/12/19 01:41:31;;;;;;;39.23;27.17;;;;;;;4.41;100.00;102315.34;5136394;29;20035;-81
2023/12/19 01:44:02;;;;;;;44.80;26.70;;;;;;;4.43;100.00;102318.00;5136318;29;20036;-82
2023/12/19 01:46:34;;;;;;;40.03;28.13;;;;;;;4.48;100.00;102322.53;5136353;29;20032;-84
2023/12/19 01:49:05;;;;;;;39.13;26.47;;;;;;;4.47;100.00;102315.59;5136124;29;20066;-79
2023/12/19 01:51:37;;;;;;;40.80;26.43;;;;;;;4.46;100.00;102312.94;5135520;29;20036;-79
2023/12/19 01:54:09;;;;;;;40.87;28.30;;;;;;;4.50;100.00;102310.53;5137603;29;20459;-79
2023/12/19 01:56:41;;;;;;;44.97;28.63;;;;;;;4.46;100.00;102311.25;5139551;29;20443;-77
2023/12/19 01:59:13;;;;;;;38.47;25.90;;;;;;;4.49;100.00;102297.56;5139497;29;20086;-79
2023/12/19 02:01:44;;;;;;;36.03;25.90;;;;;;;4.52;100.00;102300.25;5139866;29;20181;-79
2023/12/19 02:04:15;;;;;;;36.20;25.23;;;;;;;4.52;100.00;102301.16;5139863;29;20035;-81
2023/12/19 02:06:47;;;;;;;39.30;26.47;;;;;;;4.50;100.00;102302.78;5154193;28;20036;-80
2023/12/19 02:09:18;;;;;;;37.30;26.33;;;;;;;4.52;100.00;102292.50;5139857;29;20032;-80
2023/12/19 02:11:50;;;;;;;37.10;24.80;;;;;;;4.53;100.00;102292.56;5138093;28;20040;-81
2023/12/19 02:14:21;;;;;;;38.93;25.33;;;;;;;4.51;100.00;102283.03;5139560;29;20039;-79
2023/12/19 02:16:52;;;;;;;35.47;24.83;;;;;;;4.56;100.00;102296.97;5139181;29;20048;-80
2023/12/19 02:19:24;;;;;;;36.23;24.93;;;;;;;4.60;100.00;102287.63;5139084;29;20152;-81
2023/12/19 02:21:55;;;;;;;36.97;25.37;;;;;;;4.54;100.00;102277.94;5139089;29;20039;-81
2023/12/19 02:24:26;;;;;;;33.83;25.93;;;;;;;4.50;100.00;102268.34;5221582;28;20093;-81
2023/12/19 02:26:58;;;;;;;33.00;23.90;;;;;;;4.52;100.00;102264.09;5138799;29;20092;-80
2023/12/19 02:29:29;;;;;;;39.57;26.50;;;;;;;4.48;100.00;102251.94;5139133;29;20348;-80
2023/12/19 02:32:01;;;;;;;38.77;27.70;;;;;;;4.42;100.00;102259.44;5138787;29;20032;-80
2023/12/19 02:34:33;;;;;;;38.03;25.90;;;;;;;4.40;100.00;102267.13;5139507;29;20067;-81
2023/12/19 02:37:04;;;;;;;44.37;29.13;;;;;;;4.42;100.00;102262.03;5139164;29;20031;-80
2023/12/19 02:39:35;;;;;;;42.53;27.57;;;;;;;4.39;100.00;102255.03;5138638;29;20075;-81
2023/12/19 02:42:07;;;;;;;46.37;27.37;;;;;;;4.37;100.00;102259.28;5138669;29;20183;-81
2023/12/19 02:44:38;;;;;;;41.60;26.60;;;;;;;4.36;100.00;102252.34;5138685;29;20080;-81
2023/12/19 02:47:09;;;;;;;46.10;27.37;;;;;;;4.34;100.00;102251.41;5138942;29;20051;-82
2023/12/19 02:49:41;;;;;;;44.27;27.00;;;;;;;4.34;100.00;102254.88;5139087;28;20424;-80
2023/12/19 02:52:12;;;;;;;39.10;27.80;;;;;;;4.35;100.00;102264.38;5136943;28;20186;-80
2023/12/19 02:54:44;;;;;;;41.10;28.97;;;;;;;4.33;100.00;102247.06;5138511;28;20061;-79
2023/12/19 02:57:15;;;;;;;43.63;26.10;;;;;;;4.33;100.00;102242.81;5138136;28;20541;-81
2023/12/19 02:59:46;;;;;;;43.20;28.07;;;;;;;4.32;100.00;102225.53;5138308;28;20165;-81
2023/12/19 03:02:18;;;;;;;44.93;27.77;;;;;;;4.34;100.00;102216.16;5136805;28;20039;-80
2023/12/19 03:04:49;;;;;;;47.57;30.07;;;;;;;4.31;100.00;102204.84;5137008;28;20454;-82
2023/12/19 03:07:20;;;;;;;49.37;27.13;;;;;;;4.31;100.00;102210.00;5137652;28;20435;-80
2023/12/19 03:09:52;;;;;;;41.20;26.33;;;;;;;4.30;100.00;102206.56;5138360;29;20407;-81
2023/12/19 03:12:23;;;;;;;45.70;28.37;;;;;;;4.32;100.00;102206.59;5136792;28;20082;-81
2023/12/19 03:14:54;;;;;;;45.37;27.93;;;;;;;4.31;100.00;102208.28;5137578;28;20027;-81
2023/12/19 03:17:26;;;;;;;47.07;29.67;;;;;;;4.30;100.00;102197.91;5137943;28;20150;-81
2023/12/19 03:19:57;;;;;;;46.77;30.13;;;;;;;4.33;100.00;102213.50;5138353;29;20027;-81
2023/12/19 03:22:28;;;;;;;50.20;29.27;;;;;;;4.35;100.00;102179.19;5138089;28;20104;-80
2023/12/19 03:25:00;;;;;;;48.03;28.83;;;;;;;4.33;100.00;102172.19;5137272;28;20451;-79
2023/12/19 03:27:31;;;;;;;48.17;27.80;;;;;;;4.32;100.00;102181.66;5137362;28;20031;-80
2023/12/19 03:30:03;;;;;;;45.23;27.87;;;;;;;4.33;100.00;102170.53;5138252;28;20155;-81
2023/12/19 03:32:36;;;;;;;51.57;30.17;;;;;;;4.33;100.00;102157.63;5138399;28;20130;-80
2023/12/19 03:35:08;;;;;;;45.42;28.52;;;;;;;4.33;100.00;102144.69;5138595;28;20408;-81
2023/12/19 03:37:39;;;;;;;50.23;30.30;;;;;;;4.34;100.00;102137.81;5137592;28;20047;-81
2023/12/19 03:40:10;;;;;;;49.23;29.37;;;;;;;4.33;100.00;102136.97;5141381;29;20393;-79
2023/12/19 03:42:42;;;;;;;46.20;28.07;;;;;;;4.31;100.00;102140.31;5157732;28;20103;-80
2023/12/19 03:45:14;;;;;;;46.17;30.23;;;;;;;4.34;100.00;102127.50;5142669;28;20148;-80
2023/12/19 03:47:45;;;;;;;50.07;31.77;;;;;;;4.37;100.00;102136.22;5143046;28;20047;-80
2023/12/19 03:50:16;;;;;;;49.60;27.23;;;;;;;4.35;100.00;102121.53;5137492;28;20035;-78
2023/12/19 03:52:48;;;;;;;50.93;29.07;;;;;;;4.35;100.00;102132.72;5137878;28;20036;-77
2023/12/19 03:55:20;;;;;;;49.13;31.17;;;;;;;4.34;100.00;102125.78;5137819;28;20065;-79
2023/12/19 03:57:51;;;;;;;51.33;32.70;;;;;;;4.38;100.00;102131.97;5137642;29;20418;-79
2023/12/19 04:00:22;;;;;;;54.27;33.43;;;;;;;4.40;100.00;102126.84;5137791;29;20534;-79
2023/12/19 04:02:54;;;;;;;52.40;33.10;;;;;;;4.41;100.00;102120.84;5137924;29;20036;-80
2023/12/19 04:05:25;;;;;;;53.83;36.07;;;;;;;4.41;100.00;102126.00;5138973;28;20032;-80
2023/12/19 04:07:56;;;;;;;62.07;34.60;;;;;;;4.44;100.00;102115.78;5138352;28;20050;-80
2023/12/19 04:10:28;;;;;;;66.20;36.73;;;;;;;4.42;100.00;102109.69;5138876;29;20158;-80
2023/12/19 04:12:59;;;;;;;63.13;34.50;;;;;;;4.42;100.00;102107.13;5138958;29;20054;-81
2023/12/19 04:15:30;;;;;;;65.77;36.30;;;;;;;4.44;100.00;102110.63;5138283;28;20028;-79
2023/12/19 04:18:02;;;;;;;68.07;36.53;;;;;;;4.46;100.00;102099.53;5138076;28;20107;-80
2023/12/19 04:20:33;;;;;;;69.47;38.63;;;;;;;4.52;100.00;102104.00;5136007;28;20056;-81
2023/12/19 04:23:05;;;;;;;69.60;38.13;;;;;;;4.54;100.00;102103.25;5136137;28;20488;-79
2023/12/19 04:25:36;;;;;;;69.93;39.77;;;;;;;4.55;100.00;102094.66;5137561;28;20087;-80
2023/12/19 04:28:07;;;;;;;69.93;39.13;;;;;;;4.57;100.00;102086.94;5137203;28;20074;-80
2023/12/19 04:30:39;;;;;;;62.43;34.77;;;;;;;4.57;100.00;102086.94;5137818;28;20134;-79
2023/12/19 04:33:10;;;;;;;68.33;37.57;;;;;;;4.57;100.00;102071.44;5137676;29;20036;-80
2023/12/19 04:35:42;;;;;;;69.10;41.70;;;;;;;4.57;100.00;102064.59;5137501;28;20028;-80
2023/12/19 04:38:14;;;;;;;68.70;39.13;;;;;;;4.60;100.00;102063.81;5137172;29;20360;-80
2023/12/19 04:40:45;;;;;;;66.63;37.90;;;;;;;4.61;100.00;102049.22;5137253;28;20424;-82
2023/12/19 04:43:16;;;;;;;62.80;38.30;;;;;;;4.65;100.00;102058.78;5136845;28;20043;-81
2023/12/19 04:45:48;;;;;;;65.70;42.10;;;;;;;4.65;100.00;102049.34;5137127;28;20039;-79
2023/12/19 04:48:19;;;;;;;69.50;38.43;;;;;;;4.69;100.00;102040.00;5136782;28;20036;-80
2023/12/19 04:50:51;;;;;;;63.53;37.03;;;;;;;4.71;100.00;102044.38;5136449;28;20036;-80
2023/12/19 04:53:22;;;;;;;63.47;38.13;;;;;;;4.73;100.00;102027.22;5137119;29;20116;-80
2023/12/19 04:55:53;;;;;;;66.80;37.93;;;;;;;4.74;100.00;102035.84;5137116;28;20032;-81
2023/12/19 04:58:25;;;;;;;71.37;38.07;;;;;;;4.78;100.00;102029.06;5136718;28;20145;-79
2023/12/19 05:00:56;;;;;;;57.20;35.40;;;;;;;4.78;100.00;102022.19;5136898;28;20042;-81
2023/12/19 05:03:27;;;;;;;67.50;37.73;;;;;;;4.81;100.00;102026.56;5136710;29;20085;-79
2023/12/19 05:05:59;;;;;;;59.33;34.33;;;;;;;4.85;100.00;102013.81;5137288;28;20043;-80
2023/12/19 05:08:31;;;;;;;57.77;34.23;;;;;;;4.92;100.00;102025.19;5136749;29;20093;-78
2023/12/19 05:11:04;;;;;;;59.80;35.20;;;;;;;4.91;100.00;102026.00;5137063;28;20035;-81
2023/12/19 05:13:36;;;;;;;54.17;35.35;;;;;;;4.95;100.00;102025.28;5136715;29;20032;-81
2023/12/19 05:16:14;;;;;;;55.63;34.87;;;;;;;4.97;100.00;102030.50;5136821;28;20055;-79
2023/12/19 05:18:46;;;;;;;56.80;35.65;;;;;;;4.95;100.00;102027.88;5136577;28;20572;-80
2023/12/19 05:21:20;;;;;;;59.73;34.60;;;;;;;4.97;100.00;102031.38;5136074;28;20039;-80
2023/12/19 05:23:52;;;;;;;55.97;34.67;;;;;;;5.02;100.00;102040.13;5136807;29;20040;-81
2023/12/19 05:26:23;;;;;;;55.13;35.00;;;;;;;5.02;100.00;102039.28;5136522;28;20035;-80
2023/12/19 05:28:55;;;;;;;60.37;37.23;;;;;;;5.04;100.00;102025.56;5136893;28;20101;-81
2023/12/19 05:31:26;;;;;;;54.03;34.37;;;;;;;5.06;100.00;102023.03;5136535;28;20161;-80
2023/12/19 05:33:57;;;;;;;57.40;34.37;;;;;;;5.09;100.00;102029.16;5135674;28;20120;-80
2023/12/19 05:36:33;;;;;;;51.27;34.10;;;;;;;5.10;100.00;102012.84;5134973;29;20063;-81
2023/12/19 05:39:05;;;;;;;52.63;32.22;;;;;;;5.11;100.00;102014.56;5135569;28;20066;-80
2023/12/19 05:41:36;;;;;;;53.97;35.67;;;;;;;5.14;100.00;102013.81;5151594;28;20036;-77
2023/12/19 05:44:07;;;;;;;47.83;30.83;;;;;;;5.11;100.00;102014.56;5136382;28;20115;-76
2023/12/19 05:46:39;;;;;;;50.47;33.00;;;;;;;5.15;100.00;102014.66;5136320;29;20094;-77
2023/12/19 05:49:10;;;;;;;49.43;33.23;;;;;;;5.17;100.00;102007.81;5135891;28;20032;-76
2023/12/19 05:51:42;;;;;;;52.87;33.10;;;;;;;5.17;100.00;101997.47;5135960;28;20032;-77
2023/12/19 05:54:13;;;;;;;52.63;33.93;;;;;;;5.19;100.00;101983.78;5135329;28;20118;-77
2023/12/19 05:56:44;;;;;;;43.27;29.77;;;;;;;5.20;100.00;101989.81;5136099;29;20035;-77
2023/12/19 05:59:16;;;;;;;44.73;29.77;;;;;;;5.20;100.00;101971.72;5136861;28;20032;-78
2023/12/19 06:01:47;;;;;;;50.70;30.47;;;;;;;5.21;100.00;101976.06;5135019;29;20032;-79
2023/12/19 06:04:18;;;;;;;41.27;32.50;;;;;;;5.22;100.00;101983.88;5136552;28;20119;-78
2023/12/19 06:06:50;;;;;;;44.73;28.67;;;;;;;5.26;100.00;101987.41;5136523;28;20092;-78
2023/12/19 06:09:21;;;;;;;44.20;30.23;;;;;;;5.25;100.00;101972.75;5136986;28;20444;-77
2023/12/19 06:11:53;;;;;;;44.80;30.90;;;;;;;5.27;100.00;101971.09;5136507;28;20394;-79
2023/12/19 06:14:24;;;;;;;43.73;29.90;;;;;;;5.29;100.00;101972.00;5136836;28;20541;-77
2023/12/19 06:16:56;;;;;;;46.27;30.03;;;;;;;5.29;100.00;101967.69;5139407;29;20044;-77
2023/12/19 06:19:27;;;;;;;37.20;28.40;;;;;;;5.32;100.00;101974.66;5137344;29;20039;-78
2023/12/19 06:21:59;;;;;;;36.03;26.77;;;;;;;5.36;100.00;101973.94;5137937;29;20032;-77
2023/12/19 06:24:30;;;;;;;38.97;27.27;;;;;;;5.39;100.00;101971.41;5136074;29;20462;-80
2023/12/19 06:27:02;;;;;;;37.67;27.47;;;;;;;5.38;100.00;101966.22;5136033;29;20040;-78
2023/12/19 06:29:33;;;;;;;34.07;25.70;;;;;;;5.40;100.00;101956.78;5135966;28;20506;-78
2023/12/19 06:32:05;;;;;;;37.03;27.00;;;;;;;5.41;100.00;101967.16;5217625;28;20050;-77
2023/12/19 06:34:37;;;;;;;34.87;24.57;;;;;;;5.44;100.00;101959.50;5136330;29;20111;-77
2023/12/19 06:37:08;;;;;;;39.63;27.63;;;;;;;5.47;100.00;101966.44;5135983;29;20296;-79
2023/12/19 06:39:40;;;;;;;32.10;23.70;;;;;;;5.47;100.00;101967.34;5138050;29;20039;-79
2023/12/19 06:42:11;;;;;;;35.97;25.60;;;;;;;5.51;100.00;101952.78;5139146;29;20043;-78
2023/12/19 06:44:43;;;;;;;31.50;23.97;;;;;;;5.52;100.00;101961.41;5139432;29;20050;-78
2023/12/19 06:47:15;;;;;;;32.77;23.80;;;;;;;5.54;100.00;101959.72;5139233;29;20105;-79
2023/12/19 06:49:47;;;;;;;27.30;21.98;;;;;;;5.58;100.00;101958.97;5138858;29;20023;-79
2023/12/19 06:52:18;;;;;;;31.00;22.07;;;;;;;5.60;100.00;101972.81;5138982;29;20032;-80
2023/12/19 06:54:49;;;;;;;29.13;23.23;;;;;;;5.60;100.00;101960.78;5139360;29;20085;-79
2023/12/19 06:57:21;;;;;;;33.00;22.10;;;;;;;5.61;100.00;101959.06;5138888;29;20115;-79
2023/12/19 06:59:52;;;;;;;31.80;22.53;;;;;;;5.62;100.00;101961.69;5138668;29;20059;-79
2023/12/19 07:02:23;;;;;;;34.23;22.27;;;;;;;5.62;100.00;101958.25;5138565;29;20090;-79
2023/12/19 07:04:55;;;;;;;29.13;21.90;;;;;;;5.64;100.00;101960.03;5153460;28;20062;-79
2023/12/19 07:07:26;;;;;;;29.57;21.50;;;;;;;5.66;100.00;101952.31;5139040;29;20047;-79
2023/12/19 07:09:58;;;;;;;32.50;21.20;;;;;;;5.66;100.00;101948.00;5139094;29;20115;-78
2023/12/19 07:12:30;;;;;;;26.47;19.97;;;;;;;5.68;100.00;101935.09;5138993;29;20042;-77
2023/12/19 07:15:04;;;;;;;27.33;20.55;;;;;;;5.69;100.00;101941.16;5138645;29;20039;-78
2023/12/19 07:17:36;;;;;;;29.92;21.23;;;;;;;5.69;100.00;101936.84;5139310;29;20130;-79
2023/12/19 07:20:07;;;;;;;25.93;19.17;;;;;;;5.72;100.00;101949.88;5139166;29;20416;-77
2023/12/19 07:22:40;;;;;;;25.27;20.67;;;;;;;5.74;100.00;101940.44;5137865;29;20058;-80
2023/12/19 07:25:11;;;;;;;24.52;19.38;;;;;;;5.80;100.00;101939.72;5138518;29;20059;-77
2023/12/19 07:27:44;;;;;;;21.80;19.27;;;;;;;5.82;100.00;101925.97;5138436;29;20445;-78
2023/12/19 07:30:16;;;;;;;21.65;17.85;;;;;;;5.82;100.00;101920.81;5220869;28;20482;-77
2023/12/19 07:32:50;;;;;;;27.57;19.00;;;;;;;5.84;100.00;101923.44;5138293;29;20081;-77
2023/12/19 07:35:22;;;;;;;20.17;17.45;;;;;;;5.83;100.00;101924.28;5138273;29;20078;-78
2023/12/19 07:37:53;;;;;;;22.87;18.63;;;;;;;5.86;100.00;101932.13;5136961;29;20035;-77
2023/12/19 07:40:24;;;;;;;20.63;17.80;;;;;;;5.90;100.00;101933.06;5138447;29;20036;-78
2023/12/19 07:42:56;;;;;;;22.90;17.10;;;;;;;5.88;100.00;101943.38;5138699;29;20028;-79
2023/12/19 07:45:27;;;;;;;24.83;17.60;;;;;;;5.91;100.00;101942.56;5138692;29;20038;-78
2023/12/19 07:47:58;;;;;;;24.90;18.03;;;;;;;5.90;100.00;101941.69;5138956;29;20363;-77
2023/12/19 07:50:30;;;;;;;18.90;14.60;;;;;;;5.93;100.00;101939.19;5138154;29;20118;-78
2023/12/19 07:53:01;;;;;;;21.10;16.13;;;;;;;5.91;100.00;101927.03;5138701;29;20032;-78
2023/12/19 07:55:33;;;;;;;21.90;16.03;;;;;;;5.93;100.00;101920.22;5139017;29;20036;-77
2023/12/19 07:58:06;;;;;;;26.33;16.10;;;;;;;5.98;100.00;101916.06;5138060;29;20058;-77
2023/12/19 08:00:37;;;;;;;20.60;15.73;;;;;;;5.94;100.00;101924.53;5138293;29;20032;-77
2023/12/19 08:03:09;;;;;;;23.20;16.10;;;;;;;5.95;100.00;101921.13;5137993;29;20513;-78
2023/12/19 08:05:45;;;;;;;22.97;15.50;;;;;;;5.98;100.00;101921.22;5153016;28;20173;-79
2023/12/19 08:08:17;;;;;;;20.88;15.65;;;;;;;5.96;100.00;101921.19;5138564;29;20036;-79
2023/12/19 08:10:49;;;;;;;22.02;17.35;;;;;;;5.86;100.00;101911.44;5138985;28;20038;-79
2023/12/19 08:13:21;;;;;;;22.30;17.98;;;;;;;5.77;100.00;101906.88;5140491;29;20099;-77
2023/12/19 08:15:52;;;;;;;23.53;17.50;;;;;;;5.72;100.00;101892.97;5143549;29;20078;-78
2023/12/19 08:18:24;;;;;;;24.30;18.50;;;;;;;5.67;100.00;101910.09;5143358;29;20402;-78
2023/12/19 08:20:55;;;;;;;29.40;18.17;;;;;;;5.65;100.00;101910.03;5225046;28;20423;-78
2023/12/19 08:23:26;;;;;;;26.53;18.23;;;;;;;5.61;100.00;101912.50;5222534;28;20039;-77
2023/12/19 08:25:58;;;;;;;29.20;20.53;;;;;;;5.61;100.00;101900.44;5137608;29;20522;-77
2023/12/19 08:28:29;;;;;;;28.67;20.30;;;;;;;5.60;100.00;101901.28;5152235;29;20043;-77
2023/12/19 08:31:03;;;;;;;31.67;20.87;;;;;;;5.60;100.00;101903.88;5137427;29;20036;-77
2023/12/19 08:33:35;;;;;;;32.78;21.27;;;;;;;5.58;100.00;101902.06;5137456;29;20043;-78
2023/12/19 08:36:06;;;;;;;31.33;22.40;;;;;;;5.56;100.00;101899.47;5137363;29;20032;-77
2023/12/19 08:38:39;;;;;;;39.63;23.27;;;;;;;5.54;100.00;101905.41;5137260;29;20083;-77
2023/12/19 08:41:10;;;;;;;34.30;22.63;;;;;;;5.53;100.00;101901.09;5137197;29;20054;-77
2023/12/19 08:43:42;;;;;;;34.23;23.03;;;;;;;5.55;100.00;101899.41;5137598;29;20036;-78
2023/12/19 08:46:19;;;;;;;35.07;23.90;;;;;;;5.53;100.00;101903.69;5137188;29;20035;-77
2023/12/19 08:48:51;;;;;;;39.40;26.63;;;;;;;5.52;100.00;101892.44;5137004;29;20107;-77
2023/12/19 08:51:22;;;;;;;33.03;24.07;;;;;;;5.53;100.00;101894.19;5136459;29;20040;-76
2023/12/19 08:53:54;;;;;;;39.53;24.93;;;;;;;5.50;100.00;101901.00;5136896;29;20081;-75
2023/12/19 08:56:25;;;;;;;38.57;25.27;;;;;;;5.51;100.00;101900.19;5136902;29;20442;-74
2023/12/19 08:58:57;;;;;;;38.83;24.97;;;;;;;5.49;100.00;101879.47;5136679;29;20028;-75
2023/12/19 09:01:28;;;;;;;39.63;26.87;;;;;;;5.50;100.00;101882.91;5136973;29;20042;-76
2023/12/19 09:04:00;;;;;;;34.13;24.40;;;;;;;5.51;100.00;101880.38;5136338;29;20043;-76
2023/12/19 09:06:31;;;;;;;35.05;24.30;;;;;;;5.49;100.00;101879.47;5137039;29;20031;-75
2023/12/19 09:09:04;;;;;;;40.80;22.80;;;;;;;5.51;100.00;101884.66;5136490;29;20176;-76
2023/12/19 09:11:36;;;;;;;;;;;;;;;5.54;100.00;101884.72;5136722;29;20031;-76
2023/12/19 09:14:07;;;;;;;34.95;23.55;;;;;;;5.52;100.00;101876.06;5136973;29;19914;-77
2023/12/19 09:16:39;;;;;;;37.00;23.07;;;;;;;5.53;100.00;101880.41;5136432;29;20043;-77
2023/12/19 09:19:14;;;;;;;37.23;23.70;;;;;;;5.54;100.00;101871.78;5202558;28;20027;-78
2023/12/19 09:21:45;;;;;;;34.17;22.00;;;;;;;5.51;100.00;101864.84;5136288;29;20065;-78
2023/12/19 09:24:16;;;;;;;31.27;20.37;;;;;;;5.51;100.00;101867.44;5136483;29;20445;-75
2023/12/19 09:26:48;;;;;;;29.70;20.90;;;;;;;5.52;100.00;101855.38;5136985;29;20048;-76
2023/12/19 09:29:22;;;;;;;32.63;23.17;;;;;;;5.53;100.00;101867.47;5136822;29;20105;-76
2023/12/19 09:31:54;;;;;;;30.52;21.48;;;;;;;5.55;100.00;101860.63;5136869;29;20036;-78
2023/12/19 09:34:26;;;;;;;28.13;21.47;;;;;;;5.53;100.00;101862.28;5136641;28;20086;-76
2023/12/19 09:36:57;;;;;;;30.53;20.87;;;;;;;5.56;100.00;101849.44;5136807;29;20036;-77
2023/12/19 09:39:29;;;;;;;26.77;19.73;;;;;;;5.55;100.00;101852.84;5218471;28;20039;-77
2023/12/19 09:42:02;;;;;;;30.20;21.83;;;;;;;5.55;100.00;101856.31;5136900;28;20115;-78
2023/12/19 09:44:34;;;;;;;28.52;19.35;;;;;;;5.57;100.00;101848.59;5135295;29;20067;-77
2023/12/19 09:47:05;;;;;;;26.50;21.03;;;;;;;5.57;100.00;101841.72;5150839;28;20086;-78
2023/12/19 09:49:41;;;;;;;26.75;19.23;;;;;;;5.60;100.00;101846.09;5136667;29;20079;-78
2023/12/19 09:52:14;;;;;;;27.75;18.77;;;;;;;5.59;100.00;101842.63;5135759;29;20467;-76
2023/12/19 09:54:45;;;;;;;;;;;;;;;5.61;100.00;101834.91;5136805;29;20123;-76
2023/12/19 09:57:18;;;;;;;28.27;18.95;;;;;;;5.60;100.00;101836.63;5135867;29;20005;-76
2023/12/19 09:59:51;;;;;;;25.38;18.20;;;;;;;5.62;100.00;101827.19;5150938;28;20059;-76
2023/12/19 10:02:24;;;;;;;25.35;18.60;;;;;;;5.60;100.00;101827.97;5135995;29;20024;-76
2023/12/19 10:04:56;;;;;;;24.90;16.42;;;;;;;5.62;100.00;101826.31;5134868;29;20349;-76
2023/12/19 10:07:30;;;;;;;24.27;17.17;;;;;;;5.63;100.00;101820.28;5150537;28;20038;-75
2023/12/19 10:10:03;;;;;;;24.75;17.02;;;;;;;5.64;100.00;101804.81;5135691;28;20058;-77
2023/12/19 10:12:47;;;;;;;25.05;17.67;;;;;;;5.66;100.00;101791.91;5136266;29;20038;-76
2023/12/19 10:15:19;;;;;;;24.17;17.60;;;;;;;5.66;100.00;101808.31;5219002;28;20497;-75
2023/12/19 10:18:04;;;;;;;23.00;17.50;;;;;;;5.72;100.00;101817.94;5139552;29;20060;-75
2023/12/19 10:20:37;;;;;;;27.10;17.50;;;;;;;5.70;100.00;101816.13;5139282;28;20043;-74
2023/12/19 10:23:09;;;;;;;21.90;15.70;;;;;;;5.70;100.00;101803.19;5137652;29;20043;-75
2023/12/19 10:25:40;;;;;;;24.23;17.13;;;;;;;5.70;100.00;101806.69;5139398;29;20036;-76
2023/12/19 10:28:13;;;;;;;25.03;17.57;;;;;;;5.71;100.00;101800.66;5139265;29;20097;-76
2023/12/19 10:30:44;;;;;;;33.28;19.33;;;;;;;5.72;100.00;101792.06;5139123;29;20032;-76
2023/12/19 10:33:16;;;;;;;22.37;17.23;;;;;;;5.72;100.00;101786.88;5139011;29;20475;-76
2023/12/19 10:35:47;;;;;;;23.70;17.53;;;;;;;5.74;100.00;101769.69;5139208;29;20031;-76
2023/12/19 10:38:20;;;;;;;23.13;18.40;;;;;;;5.75;100.00;101763.69;5139445;29;20040;-75
2023/12/19 10:41:02;;;;;;;23.35;18.02;;;;;;;5.78;100.00;101775.78;5139403;29;20115;-75
2023/12/19 10:43:38;;;;;;;23.20;17.75;;;;;;;5.78;100.00;101752.50;5220336;28;20394;-76
2023/12/19 10:46:13;;;;;;;23.40;17.85;;;;;;;5.78;100.00;101753.41;5138908;29;20086;-75
2023/12/19 10:48:47;;;;;;;20.00;16.30;;;;;;;5.81;100.00;101755.16;5138614;29;20146;-75
2023/12/19 10:51:28;;;;;;;24.92;18.27;;;;;;;5.78;100.00;101753.41;5219988;28;20117;-75
2023/12/19 10:54:14;;;;;;;26.05;18.05;;;;;;;5.79;100.00;101751.69;5138742;29;20054;-76
2023/12/19 10:56:46;;;;;;;24.80;19.27;;;;;;;5.82;100.00;101746.56;5138569;29;20023;-74
2023/12/19 10:59:29;;;;;;;24.20;18.57;;;;;;;5.93;100.00;101726.97;5153814;28;20104;-76
2023/12/19 11:02:23;;;;;;;22.70;18.08;;;;;;;5.84;100.00;101714.72;5139038;29;20471;-75
2023/12/19 11:05:30;;;;;;;26.75;18.75;;;;;;;5.87;100.00;101705.28;5139062;29;20032;-76
2023/12/19 11:08:11;;;;;;;25.33;17.98;;;;;;;5.85;100.00;101695.75;5161183;28;20048;-75
2023/12/19 11:11:02;;;;;;;23.95;17.60;;;;;;;5.87;100.00;101697.50;5138687;29;20036;-76
2023/12/19 11:13:34;;;;;;;26.50;18.02;;;;;;;5.88;100.00;101686.34;5138580;29;20106;-76
2023/12/19 11:16:11;;;;;;;25.53;18.07;;;;;;;5.88;100.00;101676.84;5220398;28;20048;-76
2023/12/19 11:18:54;;;;;;;24.17;17.60;;;;;;;5.88;100.00;101676.84;5138514;29;20111;-76
2023/12/19 11:21:42;;;;;;;21.30;16.40;;;;;;;5.90;100.00;101666.53;5137796;29;20027;-76
2023/12/19 11:24:23;;;;;;;22.02;16.02;;;;;;;5.87;100.00;101672.50;5138544;29;20035;-76
2023/12/19 11:27:19;;;;;;;27.45;18.20;;;;;;;5.87;100.00;101658.69;5137910;29;20032;-76
2023/12/19 11:29:53;;;;;;;18.70;15.55;;;;;;;5.85;100.00;101649.19;5138322;29;20492;-77
2023/12/19 11:32:27;;;;;;;24.20;15.55;;;;;;;5.85;100.00;101659.53;5138048;29;20125;-76